sensor_id;sensor_type;location;lat;lon;timestamp;P1;durP1;ratioP1;P2;durP2;ratioP2
43552;SDS011;29153;42.696;23.218;2023-12-22T00:02:21;43.00;;;21.37;;
43552;SDS011;29153;42.696;23.218;2023-12-22T00:04:54;38.70;;;19.10;;
43552;SDS011;29153;42.696;23.218;2023-12-22T00:07:21;39.98;;;19.60;;
43552;SDS011;29153;42.696;23.218;2023-12-22T00:09:49;37.45;;;18.10;;
43552;SDS011;29153;42.696;23.218;2023-12-22T00:12:16;56.10;;;26.20;;
43552;SDS011;29153;42.696;23.218;2023-12-22T00:14:44;49.93;;;25.05;;
43552;SDS011;29153;42.696;23.218;2023-12-22T00:17:12;44.48;;;22.00;;
43552;SDS011;29153;42.696;23.218;2023-12-22T00:19:39;47.38;;;24.32;;
43552;SDS011;29153;42.696;23.218;2023-12-22T00:22:07;45.30;;;22.65;;
43552;SDS011;29153;42.696;23.218;2023-12-22T00:24:34;42.00;;;19.65;;
43552;SDS011;29153;42.696;23.218;2023-12-22T00:27:02;52.38;;;24.65;;
43552;SDS011;29153;42.696;23.218;2023-12-22T00:29:29;50.55;;;24.82;;
43552;SDS011;29153;42.696;23.218;2023-12-22T00:31:58;56.42;;;28.50;;
43552;SDS011;29153;42.696;23.218;2023-12-22T00:34:25;101.12;;;45.52;;
43552;SDS011;29153;42.696;23.218;2023-12-22T00:36:53;94.87;;;38.38;;
43552;SDS011;29153;42.696;23.218;2023-12-22T00:39:20;58.05;;;28.23;;
43552;SDS011;29153;42.696;23.218;2023-12-22T00:41:48;114.95;;;43.42;;
43552;SDS011;29153;42.696;23.218;2023-12-22T00:44:15;69.67;;;32.17;;
43552;SDS011;29153;42.696;23.218;2023-12-22T00:46:43;71.15;;;34.05;;
43552;SDS011;29153;42.696;23.218;2023-12-22T00:49:10;83.72;;;36.42;;
43552;SDS011;29153;42.696;23.218;2023-12-22T00:51:38;59.80;;;27.13;;
43552;SDS011;29153;42.696;23.218;2023-12-22T00:54:05;55.90;;;26.05;;
43552;SDS011;29153;42.696;23.218;2023-12-22T00:56:33;54.13;;;26.25;;
43552;SDS011;29153;42.696;23.218;2023-12-22T00:59:01;61.08;;;27.27;;
43552;SDS011;29153;42.696;23.218;2023-12-22T01:01:28;48.55;;;24.20;;
43552;SDS011;29153;42.696;23.218;2023-12-22T01:03:57;52.15;;;26.15;;
43552;SDS011;29153;42.696;23.218;2023-12-22T01:06:24;47.85;;;24.37;;
43552;SDS011;29153;42.696;23.218;2023-12-22T01:08:52;50.90;;;23.67;;
43552;SDS011;29153;42.696;23.218;2023-12-22T01:11:19;47.85;;;23.70;;
43552;SDS011;29153;42.696;23.218;2023-12-22T01:13:47;53.75;;;24.92;;
43552;SDS011;29153;42.696;23.218;2023-12-22T01:16:15;52.55;;;24.25;;
43552;SDS011;29153;42.696;23.218;2023-12-22T01:18:44;45.80;;;24.47;;
43552;SDS011;29153;42.696;23.218;2023-12-22T01:21:11;44.80;;;22.65;;
43552;SDS011;29153;42.696;23.218;2023-12-22T01:23:40;52.75;;;26.02;;
43552;SDS011;29153;42.696;23.218;2023-12-22T01:26:07;53.92;;;27.95;;
43552;SDS011;29153;42.696;23.218;2023-12-22T01:28:35;57.43;;;26.33;;
43552;SDS011;29153;42.696;23.218;2023-12-22T01:31:02;53.42;;;26.23;;
43552;SDS011;29153;42.696;23.218;2023-12-22T01:33:30;48.48;;;23.55;;
43552;SDS011;29153;42.696;23.218;2023-12-22T01:35:57;56.48;;;24.35;;
43552;SDS011;29153;42.696;23.218;2023-12-22T01:38:25;44.90;;;22.67;;
43552;SDS011;29153;42.696;23.218;2023-12-22T01:40:52;45.48;;;23.77;;
43552;SDS011;29153;42.696;23.218;2023-12-22T01:43:20;42.80;;;21.68;;
43552;SDS011;29153;42.696;23.218;2023-12-22T01:48:17;38.10;;;20.25;;
43552;SDS011;29153;42.696;23.218;2023-12-22T01:50:45;41.50;;;20.68;;
43552;SDS011;29153;42.696;23.218;2023-12-22T01:53:12;46.15;;;21.93;;
43552;SDS011;29153;42.696;23.218;2023-12-22T01:55:41;45.33;;;19.82;;
43552;SDS011;29153;42.696;23.218;2023-12-22T01:58:09;42.33;;;20.15;;
43552;SDS011;29153;42.696;23.218;2023-12-22T02:00:37;44.53;;;22.17;;
43552;SDS011;29153;42.696;23.218;2023-12-22T02:03:05;47.45;;;22.00;;
43552;SDS011;29153;42.696;23.218;2023-12-22T02:08:01;38.80;;;17.85;;
43552;SDS011;29153;42.696;23.218;2023-12-22T02:10:29;32.98;;;17.27;;
43552;SDS011;29153;42.696;23.218;2023-12-22T02:12:56;33.40;;;17.62;;
43552;SDS011;29153;42.696;23.218;2023-12-22T02:15:24;33.25;;;16.40;;
43552;SDS011;29153;42.696;23.218;2023-12-22T02:20:28;36.28;;;17.48;;
43552;SDS011;29153;42.696;23.218;2023-12-22T02:22:58;30.10;;;15.90;;
43552;SDS011;29153;42.696;23.218;2023-12-22T02:25:25;43.78;;;22.65;;
43552;SDS011;29153;42.696;23.218;2023-12-22T02:27:55;65.28;;;32.70;;
43552;SDS011;29153;42.696;23.218;2023-12-22T02:30:26;44.80;;;22.70;;
43552;SDS011;29153;42.696;23.218;2023-12-22T02:32:58;48.75;;;25.90;;
43552;SDS011;29153;42.696;23.218;2023-12-22T02:35:28;44.10;;;25.02;;
43552;SDS011;29153;42.696;23.218;2023-12-22T02:37:57;42.00;;;22.00;;
43552;SDS011;29153;42.696;23.218;2023-12-22T02:40:27;38.98;;;19.32;;
43552;SDS011;29153;42.696;23.218;2023-12-22T02:42:55;40.80;;;19.45;;
43552;SDS011;29153;42.696;23.218;2023-12-22T02:45:22;42.38;;;19.85;;
43552;SDS011;29153;42.696;23.218;2023-12-22T02:47:50;39.83;;;19.70;;
43552;SDS011;29153;42.696;23.218;2023-12-22T02:50:17;40.03;;;19.40;;
43552;SDS011;29153;42.696;23.218;2023-12-22T02:52:45;40.15;;;18.55;;
43552;SDS011;29153;42.696;23.218;2023-12-22T02:55:12;30.40;;;15.00;;
43552;SDS011;29153;42.696;23.218;2023-12-22T02:57:40;30.35;;;16.12;;
43552;SDS011;29153;42.696;23.218;2023-12-22T03:00:09;33.60;;;17.12;;
43552;SDS011;29153;42.696;23.218;2023-12-22T03:02:37;32.48;;;16.48;;
43552;SDS011;29153;42.696;23.218;2023-12-22T03:05:05;47.23;;;21.40;;
43552;SDS011;29153;42.696;23.218;2023-12-22T03:07:32;67.58;;;25.55;;
43552;SDS011;29153;42.696;23.218;2023-12-22T03:10:00;30.55;;;15.30;;
43552;SDS011;29153;42.696;23.218;2023-12-22T03:12:28;36.55;;;18.17;;
43552;SDS011;29153;42.696;23.218;2023-12-22T03:14:56;29.32;;;15.10;;
43552;SDS011;29153;42.696;23.218;2023-12-22T03:17:23;54.00;;;25.45;;
43552;SDS011;29153;42.696;23.218;2023-12-22T03:19:51;27.82;;;16.10;;
43552;SDS011;29153;42.696;23.218;2023-12-22T03:22:18;32.50;;;17.07;;
43552;SDS011;29153;42.696;23.218;2023-12-22T03:24:46;35.83;;;17.17;;
43552;SDS011;29153;42.696;23.218;2023-12-22T03:27:13;37.78;;;16.55;;
43552;SDS011;29153;42.696;23.218;2023-12-22T03:29:43;28.87;;;15.05;;
43552;SDS011;29153;42.696;23.218;2023-12-22T03:32:10;30.10;;;16.07;;
43552;SDS011;29153;42.696;23.218;2023-12-22T03:34:38;30.40;;;15.18;;
43552;SDS011;29153;42.696;23.218;2023-12-22T03:37:06;36.65;;;16.97;;
43552;SDS011;29153;42.696;23.218;2023-12-22T03:39:34;36.33;;;17.27;;
43552;SDS011;29153;42.696;23.218;2023-12-22T03:42:02;33.23;;;17.87;;
43552;SDS011;29153;42.696;23.218;2023-12-22T03:44:29;32.95;;;17.48;;
43552;SDS011;29153;42.696;23.218;2023-12-22T03:46:57;34.95;;;17.75;;
43552;SDS011;29153;42.696;23.218;2023-12-22T03:49:24;37.03;;;18.37;;
43552;SDS011;29153;42.696;23.218;2023-12-22T03:51:52;36.85;;;18.48;;
43552;SDS011;29153;42.696;23.218;2023-12-22T03:54:19;34.55;;;17.62;;
43552;SDS011;29153;42.696;23.218;2023-12-22T03:56:47;37.95;;;18.27;;
43552;SDS011;29153;42.696;23.218;2023-12-22T03:59:15;39.10;;;19.05;;
43552;SDS011;29153;42.696;23.218;2023-12-22T04:01:44;37.80;;;19.07;;
43552;SDS011;29153;42.696;23.218;2023-12-22T04:04:13;33.88;;;17.55;;
43552;SDS011;29153;42.696;23.218;2023-12-22T04:06:40;36.33;;;18.90;;
43552;SDS011;29153;42.696;23.218;2023-12-22T04:09:08;33.15;;;16.17;;
43552;SDS011;29153;42.696;23.218;2023-12-22T04:11:35;33.13;;;17.00;;
43552;SDS011;29153;42.696;23.218;2023-12-22T04:14:03;37.63;;;17.73;;
43552;SDS011;29153;42.696;23.218;2023-12-22T04:16:30;35.80;;;16.77;;
43552;SDS011;29153;42.696;23.218;2023-12-22T04:18:58;37.15;;;19.12;;
43552;SDS011;29153;42.696;23.218;2023-12-22T04:21:26;35.58;;;18.60;;
43552;SDS011;29153;42.696;23.218;2023-12-22T04:23:53;38.38;;;18.60;;
43552;SDS011;29153;42.696;23.218;2023-12-22T04:26:21;35.17;;;17.80;;
43552;SDS011;29153;42.696;23.218;2023-12-22T04:28:48;35.78;;;17.65;;
43552;SDS011;29153;42.696;23.218;2023-12-22T04:31:16;38.00;;;18.87;;
43552;SDS011;29153;42.696;23.218;2023-12-22T04:33:43;36.65;;;18.57;;
43552;SDS011;29153;42.696;23.218;2023-12-22T04:36:11;31.70;;;16.95;;
43552;SDS011;29153;42.696;23.218;2023-12-22T04:38:38;37.63;;;19.17;;
43552;SDS011;29153;42.696;23.218;2023-12-22T04:41:06;34.25;;;18.10;;
43552;SDS011;29153;42.696;23.218;2023-12-22T04:43:34;39.45;;;19.25;;
43552;SDS011;29153;42.696;23.218;2023-12-22T04:46:01;32.85;;;17.85;;
43552;SDS011;29153;42.696;23.218;2023-12-22T04:48:29;35.52;;;17.60;;
43552;SDS011;29153;42.696;23.218;2023-12-22T04:50:58;33.83;;;17.60;;
43552;SDS011;29153;42.696;23.218;2023-12-22T04:53:26;35.70;;;17.52;;
43552;SDS011;29153;42.696;23.218;2023-12-22T04:55:53;32.53;;;16.23;;
43552;SDS011;29153;42.696;23.218;2023-12-22T04:58:21;17.12;;;9.03;;
43552;SDS011;29153;42.696;23.218;2023-12-22T05:00:48;12.33;;;5.72;;
43552;SDS011;29153;42.696;23.218;2023-12-22T05:03:16;4.92;;;2.80;;
43552;SDS011;29153;42.696;23.218;2023-12-22T05:05:43;5.03;;;2.87;;
43552;SDS011;29153;42.696;23.218;2023-12-22T05:08:11;6.70;;;3.67;;
43552;SDS011;29153;42.696;23.218;2023-12-22T05:10:38;5.90;;;3.15;;
43552;SDS011;29153;42.696;23.218;2023-12-22T05:13:06;5.50;;;3.08;;
43552;SDS011;29153;42.696;23.218;2023-12-22T05:15:33;5.37;;;2.62;;
43552;SDS011;29153;42.696;23.218;2023-12-22T05:18:01;5.17;;;2.80;;
43552;SDS011;29153;42.696;23.218;2023-12-22T05:20:29;4.90;;;2.90;;
43552;SDS011;29153;42.696;23.218;2023-12-22T05:22:56;5.45;;;2.40;;
43552;SDS011;29153;42.696;23.218;2023-12-22T05:25:24;4.70;;;2.25;;
43552;SDS011;29153;42.696;23.218;2023-12-22T05:27:52;4.67;;;2.40;;
43552;SDS011;29153;42.696;23.218;2023-12-22T05:30:21;5.30;;;2.72;;
43552;SDS011;29153;42.696;23.218;2023-12-22T05:32:48;5.10;;;2.30;;
43552;SDS011;29153;42.696;23.218;2023-12-22T05:35:16;4.05;;;2.25;;
43552;SDS011;29153;42.696;23.218;2023-12-22T05:37:43;6.05;;;2.72;;
43552;SDS011;29153;42.696;23.218;2023-12-22T05:40:11;4.67;;;2.42;;
43552;SDS011;29153;42.696;23.218;2023-12-22T05:42:38;5.90;;;2.22;;
43552;SDS011;29153;42.696;23.218;2023-12-22T05:45:06;3.47;;;2.00;;
43552;SDS011;29153;42.696;23.218;2023-12-22T05:47:35;3.65;;;2.10;;
43552;SDS011;29153;42.696;23.218;2023-12-22T05:50:03;4.35;;;2.40;;
43552;SDS011;29153;42.696;23.218;2023-12-22T05:52:31;3.72;;;2.05;;
43552;SDS011;29153;42.696;23.218;2023-12-22T05:54:58;5.67;;;2.33;;
43552;SDS011;29153;42.696;23.218;2023-12-22T05:57:26;5.55;;;2.33;;
43552;SDS011;29153;42.696;23.218;2023-12-22T05:59:54;3.75;;;1.90;;
43552;SDS011;29153;42.696;23.218;2023-12-22T06:02:21;5.45;;;1.92;;
43552;SDS011;29153;42.696;23.218;2023-12-22T06:04:49;3.55;;;1.70;;
43552;SDS011;29153;42.696;23.218;2023-12-22T06:07:16;4.40;;;1.98;;
43552;SDS011;29153;42.696;23.218;2023-12-22T06:12:12;4.12;;;2.33;;
43552;SDS011;29153;42.696;23.218;2023-12-22T06:14:39;5.10;;;2.50;;
43552;SDS011;29153;42.696;23.218;2023-12-22T06:17:07;4.08;;;2.30;;
43552;SDS011;29153;42.696;23.218;2023-12-22T06:19:37;4.05;;;2.37;;
43552;SDS011;29153;42.696;23.218;2023-12-22T06:22:04;5.20;;;2.75;;
43552;SDS011;29153;42.696;23.218;2023-12-22T06:24:34;8.68;;;3.12;;
43552;SDS011;29153;42.696;23.218;2023-12-22T06:27:04;8.25;;;4.25;;
43552;SDS011;29153;42.696;23.218;2023-12-22T06:29:33;6.90;;;3.83;;
43552;SDS011;29153;42.696;23.218;2023-12-22T06:32:00;4.87;;;2.60;;
43552;SDS011;29153;42.696;23.218;2023-12-22T06:34:27;6.83;;;3.72;;
43552;SDS011;29153;42.696;23.218;2023-12-22T06:36:55;8.70;;;3.95;;
43552;SDS011;29153;42.696;23.218;2023-12-22T06:39:22;11.68;;;4.72;;
43552;SDS011;29153;42.696;23.218;2023-12-22T06:41:50;60.40;;;23.67;;
43552;SDS011;29153;42.696;23.218;2023-12-22T06:44:17;10.95;;;5.35;;
43552;SDS011;29153;42.696;23.218;2023-12-22T06:46:45;16.73;;;7.00;;
43552;SDS011;29153;42.696;23.218;2023-12-22T06:49:12;32.20;;;11.50;;
43552;SDS011;29153;42.696;23.218;2023-12-22T06:51:40;17.23;;;7.80;;
43552;SDS011;29153;42.696;23.218;2023-12-22T06:54:08;14.78;;;7.80;;
43552;SDS011;29153;42.696;23.218;2023-12-22T06:56:35;16.52;;;6.35;;
43552;SDS011;29153;42.696;23.218;2023-12-22T06:59:03;10.03;;;4.30;;
43552;SDS011;29153;42.696;23.218;2023-12-22T07:01:31;14.10;;;3.83;;
43552;SDS011;29153;42.696;23.218;2023-12-22T07:04:00;27.15;;;4.58;;
43552;SDS011;29153;42.696;23.218;2023-12-22T07:06:30;5.22;;;3.00;;
43552;SDS011;29153;42.696;23.218;2023-12-22T07:11:48;5.80;;;2.77;;
43552;SDS011;29153;42.696;23.218;2023-12-22T07:14:18;5.03;;;2.80;;
43552;SDS011;29153;42.696;23.218;2023-12-22T07:16:45;3.65;;;2.27;;
43552;SDS011;29153;42.696;23.218;2023-12-22T07:19:13;4.17;;;2.83;;
43552;SDS011;29153;42.696;23.218;2023-12-22T07:21:40;5.85;;;3.58;;
43552;SDS011;29153;42.696;23.218;2023-12-22T07:24:08;3.58;;;1.67;;
43552;SDS011;29153;42.696;23.218;2023-12-22T07:26:35;4.30;;;2.40;;
43552;SDS011;29153;42.696;23.218;2023-12-22T07:29:03;3.55;;;1.95;;
43552;SDS011;29153;42.696;23.218;2023-12-22T07:31:30;2.60;;;1.37;;
43552;SDS011;29153;42.696;23.218;2023-12-22T07:33:58;3.20;;;1.80;;
43552;SDS011;29153;42.696;23.218;2023-12-22T07:36:25;4.60;;;1.95;;
43552;SDS011;29153;42.696;23.218;2023-12-22T07:38:53;4.50;;;2.20;;
43552;SDS011;29153;42.696;23.218;2023-12-22T07:41:22;6.55;;;3.05;;
43552;SDS011;29153;42.696;23.218;2023-12-22T07:43:50;3.10;;;1.60;;
43552;SDS011;29153;42.696;23.218;2023-12-22T07:46:18;4.53;;;2.70;;
43552;SDS011;29153;42.696;23.218;2023-12-22T07:48:47;11.45;;;2.80;;
43552;SDS011;29153;42.696;23.218;2023-12-22T07:51:16;5.35;;;2.10;;
43552;SDS011;29153;42.696;23.218;2023-12-22T07:53:43;3.75;;;1.90;;
43552;SDS011;29153;42.696;23.218;2023-12-22T07:56:11;2.75;;;1.20;;
43552;SDS011;29153;42.696;23.218;2023-12-22T07:58:39;2.95;;;1.47;;
43552;SDS011;29153;42.696;23.218;2023-12-22T08:01:06;2.85;;;1.37;;
43552;SDS011;29153;42.696;23.218;2023-12-22T08:03:34;2.60;;;1.40;;
43552;SDS011;29153;42.696;23.218;2023-12-22T08:06:03;2.95;;;1.55;;
43552;SDS011;29153;42.696;23.218;2023-12-22T08:08:30;2.33;;;1.40;;
43552;SDS011;29153;42.696;23.218;2023-12-22T08:10:59;3.58;;;2.00;;
43552;SDS011;29153;42.696;23.218;2023-12-22T08:13:26;5.30;;;1.70;;
43552;SDS011;29153;42.696;23.218;2023-12-22T08:15:54;2.72;;;1.60;;
43552;SDS011;29153;42.696;23.218;2023-12-22T08:18:21;7.85;;;4.83;;
43552;SDS011;29153;42.696;23.218;2023-12-22T08:20:49;10.70;;;5.62;;
43552;SDS011;29153;42.696;23.218;2023-12-22T08:23:16;9.68;;;4.28;;
43552;SDS011;29153;42.696;23.218;2023-12-22T08:25:44;6.67;;;3.42;;
43552;SDS011;29153;42.696;23.218;2023-12-22T08:28:11;7.92;;;3.37;;
43552;SDS011;29153;42.696;23.218;2023-12-22T08:30:39;8.58;;;3.42;;
43552;SDS011;29153;42.696;23.218;2023-12-22T08:33:06;6.08;;;3.30;;
43552;SDS011;29153;42.696;23.218;2023-12-22T08:35:34;10.98;;;4.62;;
43552;SDS011;29153;42.696;23.218;2023-12-22T08:38:01;13.58;;;7.33;;
43552;SDS011;29153;42.696;23.218;2023-12-22T08:40:29;32.75;;;16.05;;
43552;SDS011;29153;42.696;23.218;2023-12-22T08:42:56;32.67;;;16.32;;
43552;SDS011;29153;42.696;23.218;2023-12-22T08:45:26;44.00;;;20.70;;
43552;SDS011;29153;42.696;23.218;2023-12-22T08:47:59;33.85;;;19.17;;
43552;SDS011;29153;42.696;23.218;2023-12-22T08:50:23;35.52;;;17.05;;
43552;SDS011;29153;42.696;23.218;2023-12-22T08:52:51;21.60;;;11.83;;
43552;SDS011;29153;42.696;23.218;2023-12-22T08:55:18;19.20;;;11.35;;
43552;SDS011;29153;42.696;23.218;2023-12-22T08:57:46;22.25;;;12.00;;
43552;SDS011;29153;42.696;23.218;2023-12-22T09:00:14;8.13;;;5.78;;
43552;SDS011;29153;42.696;23.218;2023-12-22T09:02:41;13.05;;;6.37;;
43552;SDS011;29153;42.696;23.218;2023-12-22T09:05:09;6.55;;;3.62;;
43552;SDS011;29153;42.696;23.218;2023-12-22T09:07:36;9.75;;;4.58;;
43552;SDS011;29153;42.696;23.218;2023-12-22T09:10:04;11.15;;;6.10;;
43552;SDS011;29153;42.696;23.218;2023-12-22T09:12:32;10.90;;;5.65;;
43552;SDS011;29153;42.696;23.218;2023-12-22T09:15:00;6.62;;;3.77;;
43552;SDS011;29153;42.696;23.218;2023-12-22T09:17:28;5.22;;;3.37;;
43552;SDS011;29153;42.696;23.218;2023-12-22T09:19:55;5.12;;;2.50;;
43552;SDS011;29153;42.696;23.218;2023-12-22T09:22:23;6.17;;;3.37;;
43552;SDS011;29153;42.696;23.218;2023-12-22T09:24:51;5.95;;;2.98;;
43552;SDS011;29153;42.696;23.218;2023-12-22T09:27:18;5.75;;;2.80;;
43552;SDS011;29153;42.696;23.218;2023-12-22T09:29:46;6.20;;;3.60;;
43552;SDS011;29153;42.696;23.218;2023-12-22T09:32:13;6.55;;;3.00;;
43552;SDS011;29153;42.696;23.218;2023-12-22T09:34:41;9.45;;;2.70;;
43552;SDS011;29153;42.696;23.218;2023-12-22T09:37:08;5.55;;;2.98;;
43552;SDS011;29153;42.696;23.218;2023-12-22T09:39:36;3.02;;;1.80;;
43552;SDS011;29153;42.696;23.218;2023-12-22T09:42:04;3.10;;;1.40;;
43552;SDS011;29153;42.696;23.218;2023-12-22T09:44:32;3.62;;;1.92;;
43552;SDS011;29153;42.696;23.218;2023-12-22T09:47:02;3.37;;;1.50;;
43552;SDS011;29153;42.696;23.218;2023-12-22T09:49:35;3.55;;;1.40;;
43552;SDS011;29153;42.696;23.218;2023-12-22T09:52:03;2.55;;;1.25;;
43552;SDS011;29153;42.696;23.218;2023-12-22T09:54:32;3.37;;;1.90;;
43552;SDS011;29153;42.696;23.218;2023-12-22T09:57:01;4.72;;;2.02;;
43552;SDS011;29153;42.696;23.218;2023-12-22T09:59:29;3.95;;;1.70;;
43552;SDS011;29153;42.696;23.218;2023-12-22T10:01:59;3.30;;;2.08;;
43552;SDS011;29153;42.696;23.218;2023-12-22T10:04:28;5.70;;;1.57;;
43552;SDS011;29153;42.696;23.218;2023-12-22T10:06:58;3.52;;;2.10;;
43552;SDS011;29153;42.696;23.218;2023-12-22T10:09:26;3.58;;;2.02;;
43552;SDS011;29153;42.696;23.218;2023-12-22T10:11:54;5.75;;;1.85;;
43552;SDS011;29153;42.696;23.218;2023-12-22T10:14:24;9.35;;;2.40;;
43552;SDS011;29153;42.696;23.218;2023-12-22T10:16:53;3.90;;;2.17;;
43552;SDS011;29153;42.696;23.218;2023-12-22T10:19:21;4.22;;;1.98;;
43552;SDS011;29153;42.696;23.218;2023-12-22T10:21:49;6.75;;;2.30;;
43552;SDS011;29153;42.696;23.218;2023-12-22T10:29:31;5.33;;;2.58;;
43552;SDS011;29153;42.696;23.218;2023-12-22T10:32:00;5.10;;;3.12;;
43552;SDS011;29153;42.696;23.218;2023-12-22T10:34:28;6.67;;;2.77;;
43552;SDS011;29153;42.696;23.218;2023-12-22T10:36:56;5.90;;;3.62;;
43552;SDS011;29153;42.696;23.218;2023-12-22T10:39:29;8.70;;;3.75;;
43552;SDS011;29153;42.696;23.218;2023-12-22T10:41:57;4.30;;;1.92;;
43552;SDS011;29153;42.696;23.218;2023-12-22T10:44:31;6.42;;;2.22;;
43552;SDS011;29153;42.696;23.218;2023-12-22T10:46:56;4.90;;;1.45;;
43552;SDS011;29153;42.696;23.218;2023-12-22T10:49:24;3.17;;;1.75;;
43552;SDS011;29153;42.696;23.218;2023-12-22T10:51:52;4.05;;;1.10;;
43552;SDS011;29153;42.696;23.218;2023-12-22T10:54:19;5.00;;;2.10;;
43552;SDS011;29153;42.696;23.218;2023-12-22T10:56:47;7.78;;;3.87;;
43552;SDS011;29153;42.696;23.218;2023-12-22T10:59:18;2.05;;;0.98;;
43552;SDS011;29153;42.696;23.218;2023-12-22T11:01:47;1.20;;;0.40;;
43552;SDS011;29153;42.696;23.218;2023-12-22T11:04:17;1.40;;;0.50;;
43552;SDS011;29153;42.696;23.218;2023-12-22T11:06:49;2.55;;;1.07;;
43552;SDS011;29153;42.696;23.218;2023-12-22T11:09:19;2.20;;;1.17;;
43552;SDS011;29153;42.696;23.218;2023-12-22T11:11:51;2.90;;;1.30;;
43552;SDS011;29153;42.696;23.218;2023-12-22T11:14:20;2.75;;;0.70;;
43552;SDS011;29153;42.696;23.218;2023-12-22T11:16:49;3.15;;;1.25;;
43552;SDS011;29153;42.696;23.218;2023-12-22T11:19:20;1.82;;;0.65;;
43552;SDS011;29153;42.696;23.218;2023-12-22T11:21:49;1.42;;;0.60;;
43552;SDS011;29153;42.696;23.218;2023-12-22T11:24:18;1.75;;;0.80;;
43552;SDS011;29153;42.696;23.218;2023-12-22T11:26:47;1.98;;;0.40;;
43552;SDS011;29153;42.696;23.218;2023-12-22T11:29:16;2.27;;;0.98;;
43552;SDS011;29153;42.696;23.218;2023-12-22T11:31:46;3.00;;;0.95;;
43552;SDS011;29153;42.696;23.218;2023-12-22T11:34:17;1.75;;;0.70;;
43552;SDS011;29153;42.696;23.218;2023-12-22T11:36:46;2.72;;;1.15;;
43552;SDS011;29153;42.696;23.218;2023-12-22T11:41:42;3.50;;;1.52;;
43552;SDS011;29153;42.696;23.218;2023-12-22T11:44:11;2.22;;;1.20;;
43552;SDS011;29153;42.696;23.218;2023-12-22T11:46:39;2.72;;;1.40;;
43552;SDS011;29153;42.696;23.218;2023-12-22T11:49:07;3.05;;;1.42;;
43552;SDS011;29153;42.696;23.218;2023-12-22T11:51:35;3.10;;;1.20;;
43552;SDS011;29153;42.696;23.218;2023-12-22T11:54:02;2.30;;;1.10;;
43552;SDS011;29153;42.696;23.218;2023-12-22T11:56:30;1.67;;;0.53;;
43552;SDS011;29153;42.696;23.218;2023-12-22T11:58:57;4.67;;;1.40;;
43552;SDS011;29153;42.696;23.218;2023-12-22T12:01:27;2.75;;;1.07;;
43552;SDS011;29153;42.696;23.218;2023-12-22T12:04:01;3.25;;;1.07;;
43552;SDS011;29153;42.696;23.218;2023-12-22T12:09:00;3.12;;;1.20;;
43552;SDS011;29153;42.696;23.218;2023-12-22T12:14:32;1.65;;;0.78;;
43552;SDS011;29153;42.696;23.218;2023-12-22T12:17:00;1.02;;;0.50;;
43552;SDS011;29153;42.696;23.218;2023-12-22T12:19:29;2.50;;;1.05;;
43552;SDS011;29153;42.696;23.218;2023-12-22T12:21:56;1.52;;;0.50;;
43552;SDS011;29153;42.696;23.218;2023-12-22T12:24:24;1.70;;;0.50;;
43552;SDS011;29153;42.696;23.218;2023-12-22T12:26:54;7.05;;;1.90;;
43552;SDS011;29153;42.696;23.218;2023-12-22T12:29:22;2.98;;;0.80;;
43552;SDS011;29153;42.696;23.218;2023-12-22T12:31:50;2.67;;;1.10;;
43552;SDS011;29153;42.696;23.218;2023-12-22T12:34:18;2.17;;;1.02;;
43552;SDS011;29153;42.696;23.218;2023-12-22T12:36:46;4.50;;;2.25;;
43552;SDS011;29153;42.696;23.218;2023-12-22T12:39:15;2.40;;;1.25;;
43552;SDS011;29153;42.696;23.218;2023-12-22T12:41:45;3.58;;;1.70;;
43552;SDS011;29153;42.696;23.218;2023-12-22T12:44:15;2.80;;;1.35;;
43552;SDS011;29153;42.696;23.218;2023-12-22T12:46:45;3.67;;;1.98;;
43552;SDS011;29153;42.696;23.218;2023-12-22T12:49:12;3.67;;;1.40;;
43552;SDS011;29153;42.696;23.218;2023-12-22T12:51:46;2.58;;;1.05;;
43552;SDS011;29153;42.696;23.218;2023-12-22T12:54:14;2.80;;;1.05;;
43552;SDS011;29153;42.696;23.218;2023-12-22T12:56:44;2.83;;;1.20;;
43552;SDS011;29153;42.696;23.218;2023-12-22T12:59:13;1.77;;;0.80;;
43552;SDS011;29153;42.696;23.218;2023-12-22T13:01:49;2.98;;;1.27;;
43552;SDS011;29153;42.696;23.218;2023-12-22T13:04:14;3.95;;;1.67;;
43552;SDS011;29153;42.696;23.218;2023-12-22T13:06:45;2.67;;;1.37;;
43552;SDS011;29153;42.696;23.218;2023-12-22T13:09:16;3.27;;;1.70;;
43552;SDS011;29153;42.696;23.218;2023-12-22T13:11:45;3.72;;;1.60;;
43552;SDS011;29153;42.696;23.218;2023-12-22T13:14:22;5.90;;;2.50;;
43552;SDS011;29153;42.696;23.218;2023-12-22T13:16:53;10.90;;;4.65;;
43552;SDS011;29153;42.696;23.218;2023-12-22T13:19:23;8.53;;;2.83;;
43552;SDS011;29153;42.696;23.218;2023-12-22T13:21:51;4.03;;;1.75;;
43552;SDS011;29153;42.696;23.218;2023-12-22T13:24:20;4.55;;;2.08;;
43552;SDS011;29153;42.696;23.218;2023-12-22T13:26:58;3.50;;;1.90;;
43552;SDS011;29153;42.696;23.218;2023-12-22T13:29:43;8.08;;;3.20;;
43552;SDS011;29153;42.696;23.218;2023-12-22T13:32:16;3.70;;;2.27;;
43552;SDS011;29153;42.696;23.218;2023-12-22T13:34:50;5.10;;;2.50;;
43552;SDS011;29153;42.696;23.218;2023-12-22T13:37:18;7.53;;;2.30;;
43552;SDS011;29153;42.696;23.218;2023-12-22T13:39:47;3.80;;;1.90;;
43552;SDS011;29153;42.696;23.218;2023-12-22T13:42:17;3.25;;;1.47;;
43552;SDS011;29153;42.696;23.218;2023-12-22T13:44:48;2.83;;;1.40;;
43552;SDS011;29153;42.696;23.218;2023-12-22T13:47:18;2.98;;;1.35;;
43552;SDS011;29153;42.696;23.218;2023-12-22T13:49:46;2.95;;;1.65;;
43552;SDS011;29153;42.696;23.218;2023-12-22T13:52:32;7.78;;;3.17;;
43552;SDS011;29153;42.696;23.218;2023-12-22T13:55:12;3.52;;;2.02;;
43552;SDS011;29153;42.696;23.218;2023-12-22T14:02:54;3.77;;;1.90;;
43552;SDS011;29153;42.696;23.218;2023-12-22T14:05:22;3.60;;;2.25;;
43552;SDS011;29153;42.696;23.218;2023-12-22T14:07:50;3.75;;;1.70;;
43552;SDS011;29153;42.696;23.218;2023-12-22T14:10:17;2.65;;;1.47;;
43552;SDS011;29153;42.696;23.218;2023-12-22T14:12:45;2.35;;;1.17;;
43552;SDS011;29153;42.696;23.218;2023-12-22T14:15:12;2.58;;;1.40;;
43552;SDS011;29153;42.696;23.218;2023-12-22T14:17:40;2.95;;;1.47;;
43552;SDS011;29153;42.696;23.218;2023-12-22T14:20:10;3.50;;;1.47;;
43552;SDS011;29153;42.696;23.218;2023-12-22T14:22:38;4.87;;;1.30;;
43552;SDS011;29153;42.696;23.218;2023-12-22T14:25:05;3.50;;;1.52;;
43552;SDS011;29153;42.696;23.218;2023-12-22T14:27:33;3.15;;;1.45;;
43552;SDS011;29153;42.696;23.218;2023-12-22T14:30:01;3.25;;;1.72;;
43552;SDS011;29153;42.696;23.218;2023-12-22T14:32:28;3.83;;;1.12;;
43552;SDS011;29153;42.696;23.218;2023-12-22T14:34:56;5.28;;;3.00;;
43552;SDS011;29153;42.696;23.218;2023-12-22T14:37:23;3.27;;;1.60;;
43552;SDS011;29153;42.696;23.218;2023-12-22T14:39:51;4.15;;;1.50;;
43552;SDS011;29153;42.696;23.218;2023-12-22T14:42:19;5.15;;;2.95;;
43552;SDS011;29153;42.696;23.218;2023-12-22T14:44:46;3.70;;;1.77;;
43552;SDS011;29153;42.696;23.218;2023-12-22T14:47:13;3.47;;;1.50;;
43552;SDS011;29153;42.696;23.218;2023-12-22T14:49:41;4.97;;;2.72;;
43552;SDS011;29153;42.696;23.218;2023-12-22T14:52:08;5.00;;;1.80;;
43552;SDS011;29153;42.696;23.218;2023-12-22T14:54:36;3.37;;;1.98;;
43552;SDS011;29153;42.696;23.218;2023-12-22T14:57:03;3.77;;;2.08;;
43552;SDS011;29153;42.696;23.218;2023-12-22T14:59:31;3.80;;;1.20;;
43552;SDS011;29153;42.696;23.218;2023-12-22T15:01:58;2.87;;;1.45;;